Welcome to Des Moines Iowa Weather. I am an independent private personal weather station on the Northwest Side of Des Moines, Iowa. Just East of Windsor Heights and just West of Glendale . This site is also mobile friendly.

There are no active watches, warnings or advisories


Visit our other weather sites:

Historical Data

Weather Station Setup



Weather Underground History page Text

Daily Summary for February 3, 2018 Units:  Metric    English   Both
« Previous Day
Next Day »
Daily Weekly Monthly Yearly Custom
  High: Low: Average:
Temperature: 6.6 °C -4.2 °C 1.4 °C
Dew Point: 0 °C -10.6 °C -5.1 °C
Humidity: 83 % 43 % 63 %
Wind Speed: 12.9 km/h 0 km/h 2.4 km/h
Wind Gust: 25.7 km/h - -
Wind:- - South
Pressure: 1021.9 hPa 1004.6 hPa -
Precipitation: 1.02 mm    
Historical Graphs
 
 
Tabular Data for February 3, 2018
Time Temperature Dew Point Pressure Wind Wind Speed Wind Gust Humidity Rainfall Rate (Hourly)
00:07 -4.2 °C -10.6 °C 1021.9 hPa SSW 6.4 km/h 9.7 km/h 62 % 0 mm
00:22 -4.1 °C -10.6 °C 1021.6 hPa SSW 4.8 km/h 9.7 km/h 62 % 0 mm
00:37 -3.9 °C -10.6 °C 1021.6 hPa Calm   4.8 km/h 62 % 0 mm
00:52 -3.8 °C -10 °C 1021.2 hPa SSE 1.6 km/h 8 km/h 62 % 0 mm
01:07 -3.6 °C -10 °C 1020.9 hPa Calm   4.8 km/h 63 % 0 mm
01:22 -3.4 °C -9.4 °C 1020.5 hPa Calm   1.6 km/h 63 % 0 mm
01:37 -3.2 °C -9.4 °C 1020.2 hPa Calm   6.4 km/h 62 % 0 mm
01:53 -2.9 °C -9.4 °C 1019.9 hPa South 3.2 km/h 6.4 km/h 61 % 0 mm
02:08 -2.6 °C -9.4 °C 1019.9 hPa South 3.2 km/h 8 km/h 60 % 0 mm
02:23 -2.4 °C -9.4 °C 1019.5 hPa Calm   3.2 km/h 60 % 0 mm
02:39 -2.2 °C -8.9 °C 1019.2 hPa South 4.8 km/h 4.8 km/h 60 % 0 mm
02:53 -2.1 °C -9.4 °C 1018.8 hPa South 1.6 km/h 6.4 km/h 59 % 0 mm
03:08 -1.9 °C -8.9 °C 1018.8 hPa Calm   6.4 km/h 59 % 0 mm
03:27 -1.8 °C -8.9 °C 1018.5 hPa Calm   4.8 km/h 58 % 0 mm
03:38 -1.6 °C -8.9 °C 1018.2 hPa Calm   4.8 km/h 58 % 0 mm
03:53 -1.5 °C -8.9 °C 1017.5 hPa Calm   4.8 km/h 58 % 0 mm
04:08 -1.5 °C -8.9 °C 1017.5 hPa Calm   4.8 km/h 58 % 0 mm
04:23 -1.5 °C -8.9 °C 1017.5 hPa Calm   4.8 km/h 58 % 0 mm
04:38 -1.3 °C -8.9 °C 1017.2 hPa South 1.6 km/h 6.4 km/h 57 % 0 mm
04:53 -1.2 °C -8.9 °C 1017.2 hPa South 3.2 km/h 4.8 km/h 57 % 0 mm
05:08 -1.2 °C -8.9 °C 1016.5 hPa Calm   9.7 km/h 57 % 0 mm
05:23 -1.2 °C -8.9 °C 1016.5 hPa SW 3.2 km/h 4.8 km/h 57 % 0 mm
05:38 -1.2 °C -8.9 °C 1016.1 hPa South 1.6 km/h 4.8 km/h 57 % 0 mm
05:53 -1.2 °C -8.3 °C 1015.8 hPa South 3.2 km/h 3.2 km/h 58 % 0 mm
06:08 -1.2 °C -8.3 °C 1015.8 hPa Calm   4.8 km/h 58 % 0 mm
06:23 -1.2 °C -8.3 °C 1015.5 hPa Calm   4.8 km/h 58 % 0 mm
06:38 -1.2 °C -8.3 °C 1015.1 hPa Calm   4.8 km/h 59 % 0 mm
06:53 -1.1 °C -8.3 °C 1014.8 hPa SSW 1.6 km/h 6.4 km/h 59 % 0 mm
07:08 -0.8 °C -8.3 °C 1014.8 hPa Calm   9.7 km/h 58 % 0 mm
07:23 -0.7 °C -8.3 °C 1014.1 hPa Calm   9.7 km/h 58 % 0 mm
07:38 -0.4 °C -8.3 °C 1014.1 hPa SSW 4.8 km/h 8 km/h 57 % 0 mm
07:53 -0.3 °C -7.8 °C 1013.4 hPa SE 6.4 km/h 9.7 km/h 57 % 0 mm
08:09 -0.1 °C -7.8 °C 1013.4 hPa Calm   6.4 km/h 57 % 0 mm
08:24 0.1 °C -7.8 °C 1013.4 hPa Calm   9.7 km/h 57 % 0 mm
08:39 0.3 °C -7.8 °C 1012.8 hPa SSW 1.6 km/h 6.4 km/h 56 % 0 mm
08:54 0.7 °C -7.2 °C 1012.8 hPa Calm   8 km/h 56 % 0 mm
09:09 1.2 °C -7.2 °C 1012.8 hPa Calm   8 km/h 55 % 0 mm
09:24 1.8 °C -6.7 °C 1012.4 hPa South 3.2 km/h 9.7 km/h 54 % 0 mm
09:39 2.5 °C -6.7 °C 1012.1 hPa SSW 3.2 km/h 9.7 km/h 52 % 0 mm
09:54 3.3 °C -6.1 °C 1012.1 hPa SE 3.2 km/h 9.7 km/h 50 % 0 mm
10:09 4.1 °C -6.1 °C 1011.7 hPa Calm   12.9 km/h 49 % 0 mm
10:24 4.6 °C -6.1 °C 1011.4 hPa SW 8 km/h 12.9 km/h 47 % 0 mm
10:39 5 °C -6.1 °C 1011.4 hPa Calm   17.7 km/h 46 % 0 mm
10:54 5.4 °C -5.6 °C 1011.1 hPa SSW 1.6 km/h 9.7 km/h 45 % 0 mm
11:09 5.7 °C -5.6 °C 1011.1 hPa SSW 1.6 km/h 4.8 km/h 45 % 0 mm
11:24 6.2 °C -5.6 °C 1010.7 hPa South 3.2 km/h 8 km/h 43 % 0 mm
11:39 6.6 °C -4.4 °C 1010.4 hPa SE 3.2 km/h 11.3 km/h 45 % 0 mm
11:54 6.3 °C -4.4 °C 1009.7 hPa North 1.6 km/h 6.4 km/h 47 % 0 mm
12:09 6 °C -4.4 °C 1009.4 hPa WNW 3.2 km/h 11.3 km/h 47 % 0 mm
12:24 5.8 °C -3.3 °C 1009 hPa WSW 6.4 km/h 16.1 km/h 52 % 0 mm
12:40 5.3 °C -2.2 °C 1008 hPa SSW 1.6 km/h 16.1 km/h 58 % 0 mm
12:55 4.6 °C -1.7 °C 1007.3 hPa SW 1.6 km/h 11.3 km/h 65 % 0.51 mm
13:10 4.1 °C -0.6 °C 1006.7 hPa South 4.8 km/h 8 km/h 72 % 1.02 mm
13:25 3.8 °C -0.6 °C 1006 hPa South 3.2 km/h 8 km/h 74 % 1.02 mm
13:40 4.9 °C -0.6 °C 1005.6 hPa SSW 1.6 km/h 8 km/h 68 % 1.02 mm
13:55 5.2 °C -1.1 °C 1005 hPa South 1.6 km/h 9.7 km/h 65 % 0.51 mm
14:10 5.3 °C -1.7 °C 1005 hPa SSW 4.8 km/h 11.3 km/h 61 % 0 mm
14:25 5.3 °C -2.2 °C 1004.6 hPa Calm   12.9 km/h 58 % 0 mm
14:40 5.4 °C -1.7 °C 1005.6 hPa West 3.2 km/h 9.7 km/h 60 % 0 mm
14:55 5.4 °C -2.2 °C 1005.3 hPa Calm   3.2 km/h 58 % 0 mm
15:12 5.4 °C -1.7 °C 1005 hPa West 1.6 km/h 1.6 km/h 60 % 0 mm
15:25 5.4 °C -2.2 °C 1005 hPa Calm   1.6 km/h 59 % 0 mm
15:40 5.6 °C -2.2 °C 1005 hPa Calm   3.2 km/h 59 % 0 mm
15:55 5.6 °C -1.7 °C 1005.3 hPa Calm   4.8 km/h 60 % 0 mm
16:10 5.4 °C -1.1 °C 1005.3 hPa Calm   1.6 km/h 64 % 0 mm
16:25 5.3 °C 0 °C 1005.3 hPa Calm   1.6 km/h 68 % 0 mm
16:40 5 °C 0 °C 1005.3 hPa Calm     69 % 0 mm
16:55 4.8 °C 0 °C 1005.3 hPa Calm     70 % 0 mm
17:10 4.5 °C -0.6 °C 1005 hPa Calm   3.2 km/h 71 % 0 mm
17:25 4.3 °C -0.6 °C 1005 hPa Calm     72 % 0 mm
17:40 4.2 °C 0 °C 1005.6 hPa Calm     73 % 0 mm
17:55 4 °C -0.6 °C 1005.3 hPa Calm     73 % 0 mm
18:10 3.8 °C -0.6 °C 1005.6 hPa Calm     73 % 0 mm
18:25 3.6 °C -1.1 °C 1005.6 hPa Calm     73 % 0 mm
18:40 3.3 °C -1.1 °C 1005.6 hPa Calm     74 % 0 mm
18:55 3.2 °C -1.1 °C 1005.6 hPa Calm     74 % 0 mm
19:10 2.8 °C -1.1 °C 1005.6 hPa Calm   3.2 km/h 75 % 0 mm
19:25 2.6 °C -1.1 °C 1006 hPa Calm     76 % 0 mm
19:40 2.4 °C -1.1 °C 1006 hPa Calm     77 % 0 mm
19:55 2.3 °C -1.1 °C 1006 hPa West 1.6 km/h 3.2 km/h 77 % 0 mm
20:10 2.7 °C -1.1 °C 1006 hPa West 1.6 km/h 3.2 km/h 75 % 0 mm
20:25 3.2 °C -1.1 °C 1006.3 hPa NW 4.8 km/h 8 km/h 72 % 0 mm
20:40 3.7 °C -1.7 °C 1006.7 hPa NW 4.8 km/h 16.1 km/h 69 % 0 mm
20:55 3.2 °C -1.1 °C 1007 hPa NNW 9.7 km/h 25.7 km/h 72 % 0 mm
21:10 2.1 °C -1.7 °C 1007 hPa North 8 km/h 16.1 km/h 75 % 0 mm
21:25 1.3 °C -2.2 °C 1008 hPa North 12.9 km/h 19.3 km/h 78 % 0 mm
21:40 0.6 °C -2.8 °C 1008.4 hPa North 6.4 km/h 22.5 km/h 79 % 0 mm
21:55 -0.2 °C -3.3 °C 1009 hPa North 9.7 km/h 25.7 km/h 80 % 0 mm
22:10 -0.7 °C -3.3 °C 1009 hPa North 6.4 km/h 24.1 km/h 81 % 0 mm
22:25 -1 °C -3.9 °C 1009.7 hPa North 4.8 km/h 17.7 km/h 82 % 0 mm
22:40 -1.2 °C -3.9 °C 1010 hPa North 12.9 km/h 19.3 km/h 82 % 0 mm
22:55 -1.6 °C -4.4 °C 1010.4 hPa North 4.8 km/h 16.1 km/h 82 % 0 mm
23:10 -2.6 °C -5.6 °C 1010.7 hPa NE 11.3 km/h 19.3 km/h 81 % 0 mm
23:25 -3.3 °C -6.1 °C 1011.4 hPa North 8 km/h 22.5 km/h 82 % 0 mm
23:40 -3.8 °C -6.7 °C 1011.7 hPa NNE 6.4 km/h 25.7 km/h 82 % 0 mm
23:55 -3.9 °C -6.7 °C 1012.1 hPa North 8 km/h 20.9 km/h 83 % 0 mm
Des Moines Weather and Climate
Compliments of Weather Underground - 3 mb

Script developed by  Jim McMurry - jmcmurry@mwt.net Adapted for the template by  Wim van der Kuil - Leuven-Template.eu

You find our weather info also at:

Weather Underground

Equipment we use:

Weather-station
Davis VP2 Plus

Weather-program
Davis Weatherlink.Com

Weather-server
iMac (Retina 4K, 21.5-inch, Late 2015)

Provider
Hostmonster.com

Davis VP2 Plus

Davis Weatherlink.Com

iMac (Retina 4K, 21.5-inch, Late 2015)

Hostmonster.com